WetterOnline ( https://www.wetteronline.de )

Wetter aktuell Daun

Aktuelles Wetter: Nürburg-Barweiler (488m)

6-stündlich | Neueste Meldungen
Ortszeit Temperatur Wetter
Mo, 21.10. 2:00 12.1° C bewölkt
So, 20.10. 20:00 12.8° C leichter Regen
So, 20.10. 14:00 12.3° C Regen
So, 20.10. 8:00 9.6° C leichter Regen
So, 20.10. 2:00 9.8° C Sprühregen
Sa, 19.10. 20:00 9.9° C bewölkt
Sa, 19.10. 14:00 12.5° C bedeckt
Sa, 19.10. 8:00 9.0° C Sprühregen
Ortszeit Temperatur Wetter
Mo, 21.10. 5:00 12.5° C bewölkt
Mo, 21.10. 4:50 12.5° C bewölkt
Mo, 21.10. 4:40 12.3° C bewölkt
Mo, 21.10. 4:30 11.9° C bewölkt
Mo, 21.10. 4:20 11.9° C bewölkt
Mo, 21.10. 4:10 11.8° C wolkig
Mo, 21.10. 4:00 11.9° C bedeckt
Mo, 21.10. 3:30 11.9° C bedeckt
Mo, 21.10. 3:00 11.8° C wolkig
Mo, 21.10. 2:30 11.8° C bewölkt
Mo, 21.10. 2:00 12.1° C bewölkt
Ortszeit Relative Feuchte Sichtweite
Mo, 21.10. 2:00 97% 28 km
So, 20.10. 20:00 97% 13 km
So, 20.10. 14:00 97% 5.0 km
So, 20.10. 8:00 100% 24 km
So, 20.10. 2:00 99% 5.0 km
Sa, 19.10. 20:00 97% 23 km
Sa, 19.10. 14:00 85% 45 km
Sa, 19.10. 8:00 95% -
Ortszeit Relative Feuchte Sichtweite
Mo, 21.10. 5:00 95% 45 km
Mo, 21.10. 4:50 95% -
Mo, 21.10. 4:40 96% -
Mo, 21.10. 4:30 97% 45 km
Mo, 21.10. 4:20 97% -
Mo, 21.10. 4:10 96% -
Mo, 21.10. 4:00 96% 40 km
Mo, 21.10. 3:30 97% 30 km
Mo, 21.10. 3:00 97% 19 km
Mo, 21.10. 2:30 97% 23 km
Mo, 21.10. 2:00 97% 28 km
Ortszeit Niederschlagsmenge Niederschlagsart
Mo, 21.10. 2:00 4 l/m2 in 6 Std. Regen
So, 20.10. 20:00 27 l/m2 in 12 Std. Regen
So, 20.10. 14:00 10 l/m2 in 6 Std. Regen
So, 20.10. 8:00 6 l/m2 in 12 Std. Regen
So, 20.10. 2:00 3 l/m2 in 6 Std. Regen
Sa, 19.10. 20:00 3 l/m2 in 12 Std. Regen
Sa, 19.10. 14:00 1 l/m2 in 6 Std. Schneeregen
Sa, 19.10. 8:00 0.1 l/m2 in 12 Std. -
Ortszeit Niederschlagsmenge Niederschlagsart
Mo, 21.10. 5:00 0.1 l/m2 in 1 Std. -
Mo, 21.10. 4:50 keine Meldung -
Mo, 21.10. 4:40 keine Meldung -
Mo, 21.10. 4:30 0.0 l/m2 in 1 Std. -
Mo, 21.10. 4:20 keine Meldung -
Mo, 21.10. 4:10 keine Meldung -
Mo, 21.10. 4:00 0.0 l/m2 in 1 Std. -
Mo, 21.10. 3:30 0.0 l/m2 in 1 Std. -
Mo, 21.10. 3:00 0.0 l/m2 in 1 Std. -
Mo, 21.10. 2:30 0.0 l/m2 in 1 Std. -
Mo, 21.10. 2:00 0.0 l/m2 in 1 Std. Regen
Ortszeit Stärke Spitze Richtung
km/h Bft. km/h Grad Sektor
Mo, 21.10. 2:00 4 1 29 190° S
So, 20.10. 20:00 7 2 39 140° SO
So, 20.10. 14:00 7 2 14 130° SO
So, 20.10. 8:00 4 1 11 90° O
So, 20.10. 2:00 2 1 15 160° S
Sa, 19.10. 20:00 4 1 40 230° SW
Sa, 19.10. 14:00 18 3 36 200° S
Sa, 19.10. 8:00 9 2 31 150° SO
Ortszeit Stärke Spitze Richtung
km/h Bft. km/h Grad Sektor
Mo, 21.10. 5:00 13 3 26 200° S
Mo, 21.10. 4:50 13 3 - 200° S
Mo, 21.10. 4:40 11 2 - 200° S
Mo, 21.10. 4:30 7 2 22 210° SW
Mo, 21.10. 4:20 7 2 - 210° SW
Mo, 21.10. 4:10 9 2 - 180° S
Mo, 21.10. 4:00 7 2 22 180° S
Mo, 21.10. 3:30 7 2 22 180° S
Mo, 21.10. 3:00 7 2 18 170° S
Mo, 21.10. 2:30 7 2 18 140° SO
Mo, 21.10. 2:00 4 1 18 190° S
Ortszeit Untergrenze Bedeckung Gattung
total tief tief mittel hoch
Mo, 21.10. 2:00 270 m 7/8 6/8 - - -
So, 20.10. 20:00 300 m 7/8 7/8 - - -
So, 20.10. 14:00 240 m 7/8 7/8 - - -
So, 20.10. 8:00 180 m 8/8 8/8 - - -
So, 20.10. 2:00 660 m 7/8 7/8 - - -
Sa, 19.10. 20:00 1380 m 8/8 7/8 - - -
Sa, 19.10. 14:00 360 m 8/8 8/8 - - -
Sa, 19.10. 8:00 210 m 7/8 7/8 - - -
Ortszeit Bedeckungsgrad in Achtel und Wolkenuntergrenze
Mo, 21.10. 5:00 4(360m) 7(510m) 8(3300m)
Mo, 21.10. 4:50 4(360m) 7(510m) 8(3300m)
Mo, 21.10. 4:40 2(390m) 7(510m) 7(3900m)
Mo, 21.10. 4:30 5(450m) 8(8100m) 8(9000m)
Mo, 21.10. 4:20 5(450m) 8(8100m) 8(9000m)
Mo, 21.10. 4:10 2(480m) 8(8100m) 8(9000m)
Mo, 21.10. 4:00 6(3900m) 8(5100m) 8(8100m)
Mo, 21.10. 3:30 2(3300m) 8(4200m) 8(6000m)
Mo, 21.10. 3:00 3(4500m) 8(8400m) 8(9000m)
Mo, 21.10. 2:30 1(6000m) 7(6600m) 8(8100m)
Mo, 21.10. 2:00 6(270m) 7(5700m) 7(6900m)
Ortszeit Luftdruck NN (hPa) Tendenz (hPa in 3 Std.)
Mo, 21.10. 2:00 1010 + 0,3
So, 20.10. 20:00 1008 + 1,2
So, 20.10. 14:00 1007 - 0,4
So, 20.10. 8:00 1008 + 0,2
So, 20.10. 2:00 1008 - 0,1
Sa, 19.10. 20:00 1007 + 0,6
Sa, 19.10. 14:00 1005 - 0,9
Sa, 19.10. 8:00 1007 - 1,3
Ortszeit Luftdruck NN (hPa) Tendenz (hPa in 3 Std.)
Mo, 21.10. 5:00 1012 + 1,9
Mo, 21.10. 4:50 1012 keine Meldung
Mo, 21.10. 4:40 1012 keine Meldung
Mo, 21.10. 4:30 1011 + 1,5
Mo, 21.10. 4:20 1011 keine Meldung
Mo, 21.10. 4:10 1011 keine Meldung
Mo, 21.10. 4:00 1011 + 1,2
Mo, 21.10. 3:30 1011 + 0,6
Mo, 21.10. 3:00 1010 + 0,4
Mo, 21.10. 2:30 1010 - 0,4
Mo, 21.10. 2:00 1010 + 0,3
Ortszeit Schneehöhe (cm)
Mo, 21.10. 2:00 0
So, 20.10. 20:00 0
So, 20.10. 14:00 0
So, 20.10. 8:00 0
So, 20.10. 2:00 0
Sa, 19.10. 20:00 0
Sa, 19.10. 14:00 0
Sa, 19.10. 8:00 0
Ortszeit Schneehöhe (cm)
Mo, 21.10. 5:00 0
Mo, 21.10. 4:50 0
Mo, 21.10. 4:40 0
Mo, 21.10. 4:30 0
Mo, 21.10. 4:20 0
Mo, 21.10. 4:10 0
Mo, 21.10. 4:00 0
Mo, 21.10. 3:30 0
Mo, 21.10. 3:00 0
Mo, 21.10. 2:30 0
Mo, 21.10. 2:00 0
Link zu dieser Seite / Seite empfehlen

Das Wetter in ...